Time;durP1;ratioP1;P1;durP2;ratioP2;P2;SDS_P1;SDS_P2;PMS_P1;PMS_P2;Temp;Humidity;BMP_temperature;BMP_pressure;BME280_temperature;BME280_humidity;BME280_pressure;Samples;Min_cycle;Max_cycle;Signal;HPM_P1;HPM_P2
2022/01/05 00:01:26;;;;;;;8.52;1.65;;;;;;;;;;5023264;28;20809;-81
2022/01/05 00:03:52;;;;;;;12.10;1.70;;;;;;;;;;5025508;28;20033;-80
2022/01/05 00:06:18;;;;;;;13.80;1.30;;;;;;;;;;5025316;28;20112;-81
2022/01/05 00:08:44;;;;;;;7.70;1.50;;;;;;;;;;5026326;28;20044;-80
2022/01/05 00:11:11;;;;;;;8.40;1.50;;;;;;;;;;5007618;28;20375;-80
2022/01/05 00:13:37;;;;;;;16.92;2.90;;;;;;;;;;5026022;28;20079;-81
2022/01/05 00:16:03;;;;;;;7.53;1.83;;;;;;;;;;5025948;28;20049;-81
2022/01/05 00:18:31;;;;;;;11.05;1.60;;;;;;;;;;5027681;28;20608;-80
2022/01/05 00:20:57;;;;;;;10.50;1.67;;;;;;;;;;5025615;28;20056;-80
2022/01/05 00:23:23;;;;;;;11.88;1.38;;;;;;;;;;5026839;28;20047;-80
2022/01/05 00:25:49;;;;;;;11.90;1.48;;;;;;;;;;5026614;28;20045;-79
2022/01/05 00:28:15;;;;;;;5.15;1.42;;;;;;;;;;5026363;28;20057;-81
2022/01/05 00:30:42;;;;;;;8.75;1.05;;;;;;;;;;5026041;28;20038;-81
2022/01/05 00:33:08;;;;;;;3.97;1.45;;;;;;;;;;5006352;28;20095;-80
2022/01/05 00:35:34;;;;;;;7.50;1.60;;;;;;;;;;5024539;28;20042;-80
2022/01/05 00:38:00;;;;;;;10.65;1.73;;;;;;;;;;5025726;28;20401;-81
2022/01/05 00:40:26;;;;;;;12.07;1.85;;;;;;;;;;5025360;28;20413;-81
2022/01/05 00:42:52;;;;;;;8.32;1.80;;;;;;;;;;5025632;28;20375;-81
2022/01/05 00:45:18;;;;;;;18.13;2.42;;;;;;;;;;5022853;28;20050;-81
2022/01/05 00:47:44;;;;;;;9.05;1.52;;;;;;;;;;5025988;28;20048;-80
2022/01/05 00:50:10;;;;;;;8.18;1.52;;;;;;;;;;5025848;28;20045;-81
2022/01/05 00:52:36;;;;;;;8.55;1.60;;;;;;;;;;5024458;28;20048;-81
2022/01/05 00:55:03;;;;;;;11.00;2.38;;;;;;;;;;5024990;28;20080;-80
2022/01/05 00:57:29;;;;;;;12.02;1.80;;;;;;;;;;5025556;28;20037;-81
2022/01/05 00:59:55;;;;;;;9.82;1.70;;;;;;;;;;5007668;28;20048;-80
2022/01/05 01:02:21;;;;;;;8.80;1.95;;;;;;;;;;5025100;28;20042;-80
2022/01/05 01:04:47;;;;;;;12.63;1.83;;;;;;;;;;5023480;28;20046;-80
2022/01/05 01:07:13;;;;;;;7.60;2.00;;;;;;;;;;5025500;28;20041;-80
2022/01/05 01:09:39;;;;;;;9.45;2.10;;;;;;;;;;5025352;28;20429;-81
2022/01/05 01:12:06;;;;;;;20.58;2.45;;;;;;;;;;5025275;28;20037;-81
2022/01/05 01:14:32;;;;;;;15.13;2.63;;;;;;;;;;5022016;28;20045;-81
2022/01/05 01:16:58;;;;;;;15.52;2.70;;;;;;;;;;5024699;28;20049;-81
2022/01/05 01:19:24;;;;;;;12.85;2.63;;;;;;;;;;5025224;28;20041;-81
2022/01/05 01:21:50;;;;;;;10.57;2.10;;;;;;;;;;5023890;28;20049;-80
2022/01/05 01:24:16;;;;;;;22.67;2.55;;;;;;;;;;5025450;28;20135;-82
2022/01/05 01:26:42;;;;;;;22.73;3.00;;;;;;;;;;5018015;28;20045;-80
2022/01/05 01:29:08;;;;;;;20.88;1.98;;;;;;;;;;5025229;28;20061;-81
2022/01/05 01:31:34;;;;;;;18.52;2.10;;;;;;;;;;5024675;28;20037;-82
2022/01/05 01:34:00;;;;;;;12.85;1.40;;;;;;;;;;5023642;28;20132;-81
2022/01/05 01:36:26;;;;;;;11.88;2.65;;;;;;;;;;5024790;28;20390;-81
2022/01/05 01:38:52;;;;;;;9.15;1.70;;;;;;;;;;5020021;28;20488;-81
2022/01/05 01:41:18;;;;;;;29.65;2.40;;;;;;;;;;5024048;28;20045;-81
2022/01/05 01:43:44;;;;;;;11.63;2.17;;;;;;;;;;5024178;28;20046;-80
2022/01/05 01:46:10;;;;;;;6.95;1.25;;;;;;;;;;5024717;28;20145;-80
2022/01/05 01:48:37;;;;;;;17.08;3.10;;;;;;;;;;5024697;28;20075;-81
2022/01/05 01:51:03;;;;;;;16.00;2.55;;;;;;;;;;5025101;28;20624;-79
2022/01/05 01:53:29;;;;;;;10.40;1.65;;;;;;;;;;5024145;28;20073;-80
2022/01/05 01:55:58;;;;;;;13.38;2.28;;;;;;;;;;5024739;28;20547;-80
2022/01/05 01:58:25;;;;;;;18.85;2.65;;;;;;;;;;5021886;28;20401;-80
2022/01/05 02:00:52;;;;;;;20.08;3.03;;;;;;;;;;5023216;28;20099;-79
2022/01/05 02:03:18;;;;;;;20.42;4.68;;;;;;;;;;5024954;28;20037;-80
2022/01/05 02:05:44;;;;;;;15.25;2.17;;;;;;;;;;5024392;28;20032;-80
2022/01/05 02:08:10;;;;;;;14.63;2.83;;;;;;;;;;5025846;28;20045;-81
2022/01/05 02:10:36;;;;;;;12.10;2.30;;;;;;;;;;5020978;28;20041;-80
2022/01/05 02:13:02;;;;;;;11.68;2.42;;;;;;;;;;5023867;28;20415;-79
2022/01/05 02:15:28;;;;;;;13.13;2.13;;;;;;;;;;5021218;28;20041;-81
2022/01/05 02:20:31;;;;;;;12.57;1.98;;;;;;;;;;5023882;28;20140;-80
2022/01/05 02:22:58;;;;;;;19.38;2.35;;;;;;;;;;5023686;28;20037;-81
2022/01/05 02:25:24;;;;;;;13.00;2.35;;;;;;;;;;5024432;28;20084;-81
2022/01/05 02:27:52;;;;;;;17.40;2.58;;;;;;;;;;5022256;28;21051;-81
2022/01/05 02:30:20;;;;;;;15.25;1.90;;;;;;;;;;5022510;28;20091;-80
2022/01/05 02:32:46;;;;;;;17.40;3.92;;;;;;;;;;5004036;28;20058;-81
2022/01/05 02:35:12;;;;;;;12.60;2.00;;;;;;;;;;5026565;28;20544;-81
2022/01/05 02:37:42;;;;;;;14.13;2.20;;;;;;;;;;5028380;28;20091;-80
2022/01/05 02:40:10;;;;;;;11.63;2.38;;;;;;;;;;5026959;28;20053;-80
2022/01/05 02:42:36;;;;;;;8.30;1.67;;;;;;;;;;5028422;28;20099;-81
2022/01/05 02:45:02;;;;;;;12.25;2.75;;;;;;;;;;5023726;28;20041;-80
2022/01/05 02:47:29;;;;;;;3.88;1.10;;;;;;;;;;4994759;28;20576;-80
2022/01/05 02:49:58;;;;;;;12.02;1.85;;;;;;;;;;5026159;28;20060;-81
2022/01/05 02:52:25;;;;;;;16.45;2.42;;;;;;;;;;5025489;28;20037;-81
2022/01/05 02:54:51;;;;;;;14.15;2.70;;;;;;;;;;5027749;28;20036;-80
2022/01/05 02:57:17;;;;;;;18.42;2.80;;;;;;;;;;5027448;28;20060;-81
2022/01/05 02:59:43;;;;;;;17.50;2.78;;;;;;;;;;5010206;28;20084;-80
2022/01/05 03:02:09;;;;;;;15.70;2.58;;;;;;;;;;5026082;28;20136;-81
2022/01/05 03:04:35;;;;;;;22.13;3.75;;;;;;;;;;5028096;28;20045;-81
2022/01/05 03:07:01;;;;;;;21.63;2.60;;;;;;;;;;5026023;28;20045;-81
2022/01/05 03:09:27;;;;;;;27.85;2.70;;;;;;;;;;5027499;28;20049;-78
2022/01/05 03:11:54;;;;;;;20.35;2.72;;;;;;;;;;5027115;28;20053;-81
2022/01/05 03:14:20;;;;;;;11.88;2.47;;;;;;;;;;5026807;28;20057;-80
2022/01/05 03:16:46;;;;;;;19.20;3.15;;;;;;;;;;5027427;28;20132;-81
2022/01/05 03:19:12;;;;;;;16.45;4.18;;;;;;;;;;5025082;28;20551;-80
2022/01/05 03:21:38;;;;;;;17.75;2.50;;;;;;;;;;5025547;28;20394;-81
2022/01/05 03:24:05;;;;;;;25.30;3.33;;;;;;;;;;5026141;28;20045;-81
2022/01/05 03:26:31;;;;;;;20.58;2.95;;;;;;;;;;5026884;28;20095;-81
2022/01/05 03:28:57;;;;;;;23.63;3.17;;;;;;;;;;5026469;28;20037;-81
2022/01/05 03:31:23;;;;;;;21.63;3.45;;;;;;;;;;5008663;28;20127;-81
2022/01/05 03:33:49;;;;;;;12.35;3.38;;;;;;;;;;5008559;28;20060;-81
2022/01/05 03:36:15;;;;;;;17.77;2.05;;;;;;;;;;5026316;28;20725;-82
2022/01/05 03:38:41;;;;;;;20.67;3.25;;;;;;;;;;5027083;28;20060;-80
2022/01/05 03:41:07;;;;;;;13.45;3.22;;;;;;;;;;5022725;28;20061;-81
2022/01/05 03:43:33;;;;;;;18.35;2.28;;;;;;;;;;5027676;28;20440;-81
2022/01/05 03:45:59;;;;;;;17.85;2.00;;;;;;;;;;5026989;28;20690;-81
2022/01/05 03:48:26;;;;;;;22.02;2.60;;;;;;;;;;5026936;28;20087;-80
2022/01/05 03:50:52;;;;;;;14.98;3.47;;;;;;;;;;5026474;28;20041;-81
2022/01/05 03:53:18;;;;;;;16.58;2.55;;;;;;;;;;5026553;28;20071;-81
2022/01/05 03:55:45;;;;;;;16.20;2.70;;;;;;;;;;5024151;28;20132;-81
2022/01/05 03:58:11;;;;;;;18.40;2.60;;;;;;;;;;5007968;28;20053;-81
2022/01/05 04:00:43;;;;;;;16.23;2.53;;;;;;;;;;5025835;28;20036;-80
2022/01/05 04:03:09;;;;;;;15.23;2.10;;;;;;;;;;5025897;28;20042;-81
2022/01/05 04:05:35;;;;;;;16.27;1.92;;;;;;;;;;5024979;28;20550;-80
2022/01/05 04:08:01;;;;;;;19.63;3.70;;;;;;;;;;5009272;28;20436;-80
2022/01/05 04:10:27;;;;;;;10.93;2.08;;;;;;;;;;5026929;28;20120;-81
2022/01/05 04:12:54;;;;;;;14.65;1.83;;;;;;;;;;5025370;28;20045;-82
2022/01/05 04:15:20;;;;;;;16.35;2.50;;;;;;;;;;5023323;28;20061;-80
2022/01/05 04:17:46;;;;;;;17.20;2.30;;;;;;;;;;5026051;28;20037;-81
2022/01/05 04:20:13;;;;;;;14.00;1.92;;;;;;;;;;5026153;28;20124;-82
2022/01/05 04:22:39;;;;;;;10.27;1.70;;;;;;;;;;5025394;28;20493;-81
2022/01/05 04:25:06;;;;;;;16.33;2.30;;;;;;;;;;5025894;28;20123;-82
2022/01/05 04:27:32;;;;;;;8.43;1.63;;;;;;;;;;5026252;28;20103;-81
2022/01/05 04:29:58;;;;;;;15.13;2.47;;;;;;;;;;5026653;28;20043;-81
2022/01/05 04:32:24;;;;;;;11.63;2.35;;;;;;;;;;5025604;28;22023;-81
2022/01/05 04:34:50;;;;;;;16.67;2.58;;;;;;;;;;5025384;28;20100;-82
2022/01/05 04:37:16;;;;;;;14.85;3.60;;;;;;;;;;5024787;28;20048;-80
2022/01/05 04:39:42;;;;;;;20.52;2.72;;;;;;;;;;4991806;28;20037;-80
2022/01/05 04:42:08;;;;;;;18.33;2.70;;;;;;;;;;5025002;28;20077;-81
2022/01/05 04:44:36;;;;;;;17.95;2.38;;;;;;;;;;5024894;28;20689;-79
2022/01/05 04:47:02;;;;;;;11.93;2.15;;;;;;;;;;5025889;28;20433;-81
2022/01/05 04:49:28;;;;;;;13.00;2.00;;;;;;;;;;5025208;28;20527;-81
2022/01/05 04:51:54;;;;;;;20.25;2.95;;;;;;;;;;5026392;28;20111;-81
2022/01/05 04:54:20;;;;;;;14.05;2.72;;;;;;;;;;5026100;28;20053;-80
2022/01/05 04:56:46;;;;;;;14.63;1.95;;;;;;;;;;5020446;28;20041;-81
2022/01/05 04:59:12;;;;;;;24.00;2.88;;;;;;;;;;5017523;28;20473;-81
2022/01/05 05:01:38;;;;;;;15.52;2.25;;;;;;;;;;5020640;28;20516;-80
2022/01/05 05:04:05;;;;;;;17.13;2.20;;;;;;;;;;5024746;28;20074;-80
2022/01/05 05:06:31;;;;;;;9.93;1.38;;;;;;;;;;5023842;28;20044;-79
2022/01/05 05:08:57;;;;;;;13.60;2.13;;;;;;;;;;5023350;28;20041;-79
2022/01/05 05:11:23;;;;;;;21.70;3.15;;;;;;;;;;5021289;28;20076;-80
2022/01/05 05:13:49;;;;;;;17.38;2.60;;;;;;;;;;5020704;28;20080;-79
2022/01/05 05:16:15;;;;;;;11.75;2.00;;;;;;;;;;5021760;28;20404;-81
2022/01/05 05:18:41;;;;;;;16.40;2.70;;;;;;;;;;5020614;28;20076;-80
2022/01/05 05:21:08;;;;;;;16.63;2.38;;;;;;;;;;5021867;28;20083;-81
2022/01/05 05:23:34;;;;;;;9.57;1.92;;;;;;;;;;5022442;28;20038;-80
2022/01/05 05:26:00;;;;;;;19.30;2.83;;;;;;;;;;5005566;28;20513;-79
2022/01/05 05:28:26;;;;;;;18.08;2.78;;;;;;;;;;5021081;28;20083;-80
2022/01/05 05:30:52;;;;;;;8.57;1.30;;;;;;;;;;5025374;28;20064;-79
2022/01/05 05:33:18;;;;;;;18.02;3.40;;;;;;;;;;5024626;28;20068;-79
2022/01/05 05:35:44;;;;;;;13.48;2.25;;;;;;;;;;5025750;28;20038;-81
2022/01/05 05:38:12;;;;;;;14.82;2.22;;;;;;;;;;5024424;28;20540;-80
2022/01/05 05:40:38;;;;;;;12.23;3.17;;;;;;;;;;5024978;28;20057;-80
2022/01/05 05:43:04;;;;;;;15.80;2.30;;;;;;;;;;5023455;28;20037;-80
2022/01/05 05:45:30;;;;;;;19.58;3.30;;;;;;;;;;5020472;28;20072;-81
2022/01/05 05:47:56;;;;;;;19.42;2.45;;;;;;;;;;5020257;28;20033;-81
2022/01/05 05:50:23;;;;;;;19.38;2.33;;;;;;;;;;5021061;28;20095;-81
2022/01/05 05:52:49;;;;;;;19.70;3.03;;;;;;;;;;5019082;28;20052;-81
2022/01/05 05:55:15;;;;;;;19.23;2.78;;;;;;;;;;5023138;28;20050;-82
2022/01/05 05:57:41;;;;;;;16.27;3.13;;;;;;;;;;5009129;28;20505;-81
2022/01/05 06:00:08;;;;;;;25.58;3.55;;;;;;;;;;5021432;28;20065;-80
2022/01/05 06:02:34;;;;;;;13.88;3.00;;;;;;;;;;5023370;28;20136;-80
2022/01/05 06:05:00;;;;;;;17.35;2.40;;;;;;;;;;5017691;28;20037;-82
2022/01/05 06:07:26;;;;;;;20.38;3.50;;;;;;;;;;5019478;28;20048;-80
2022/01/05 06:09:52;;;;;;;9.95;1.70;;;;;;;;;;5025980;28;20037;-82
2022/01/05 06:12:18;;;;;;;12.07;2.20;;;;;;;;;;5027484;28;20506;-81
2022/01/05 06:14:44;;;;;;;17.27;2.58;;;;;;;;;;5029301;28;20396;-80
2022/01/05 06:17:10;;;;;;;8.18;1.25;;;;;;;;;;5026361;28;20037;-81
2022/01/05 06:19:36;;;;;;;11.40;1.77;;;;;;;;;;5005896;28;20037;-81
2022/01/05 06:22:03;;;;;;;6.63;1.20;;;;;;;;;;5008541;28;20068;-81
2022/01/05 06:24:29;;;;;;;9.15;1.30;;;;;;;;;;5007490;28;20576;-82
2022/01/05 06:26:55;;;;;;;9.80;1.58;;;;;;;;;;5004796;28;20465;-80
2022/01/05 06:29:21;;;;;;;15.35;1.95;;;;;;;;;;5008568;28;20107;-80
2022/01/05 06:31:47;;;;;;;11.07;1.65;;;;;;;;;;4991325;28;20054;-80
2022/01/05 06:34:13;;;;;;;9.23;2.15;;;;;;;;;;5007556;28;20093;-80
2022/01/05 06:36:39;;;;;;;8.98;1.90;;;;;;;;;;5008989;28;20042;-82
2022/01/05 06:39:05;;;;;;;12.35;2.03;;;;;;;;;;5005525;28;20402;-81
2022/01/05 06:41:32;;;;;;;8.80;2.00;;;;;;;;;;5006275;28;20531;-81
2022/01/05 06:43:58;;;;;;;12.57;1.63;;;;;;;;;;4993505;28;20050;-81
2022/01/05 06:46:24;;;;;;;20.63;2.47;;;;;;;;;;4990583;28;20137;-81
2022/01/05 06:48:50;;;;;;;11.00;1.92;;;;;;;;;;5008316;28;20073;-81
2022/01/05 06:51:16;;;;;;;10.98;1.58;;;;;;;;;;5008245;28;20505;-81
2022/01/05 06:53:42;;;;;;;15.63;1.92;;;;;;;;;;5008266;28;20084;-81
2022/01/05 06:56:08;;;;;;;10.45;1.85;;;;;;;;;;5007280;28;20183;-80
2022/01/05 06:58:34;;;;;;;11.73;2.55;;;;;;;;;;5007773;28;20053;-81
2022/01/05 07:01:00;;;;;;;17.30;2.80;;;;;;;;;;5008111;28;20045;-81
2022/01/05 07:03:26;;;;;;;15.77;2.80;;;;;;;;;;5008133;28;20038;-81
2022/01/05 07:05:52;;;;;;;23.65;3.13;;;;;;;;;;5007857;28;20053;-81
2022/01/05 07:08:19;;;;;;;21.15;2.88;;;;;;;;;;5008423;28;20053;-81
2022/01/05 07:10:45;;;;;;;12.00;2.05;;;;;;;;;;5008474;28;20042;-80
2022/01/05 07:13:11;;;;;;;13.88;2.13;;;;;;;;;;5007603;28;20073;-80
2022/01/05 07:15:37;;;;;;;9.30;1.95;;;;;;;;;;4988932;28;20061;-80
2022/01/05 07:18:04;;;;;;;20.02;2.92;;;;;;;;;;4987877;28;20533;-81
2022/01/05 07:20:30;;;;;;;17.15;2.58;;;;;;;;;;5012454;28;20065;-81
2022/01/05 07:22:56;;;;;;;21.90;2.75;;;;;;;;;;5024982;28;20057;-80
2022/01/05 07:25:22;;;;;;;16.13;2.08;;;;;;;;;;5025724;28;20034;-80
2022/01/05 07:27:48;;;;;;;19.02;2.63;;;;;;;;;;5025386;28;20076;-80
2022/01/05 07:30:14;;;;;;;21.05;4.20;;;;;;;;;;5021716;28;20440;-79
2022/01/05 07:32:40;;;;;;;14.20;1.70;;;;;;;;;;5024661;28;20180;-80
2022/01/05 07:35:07;;;;;;;15.57;2.35;;;;;;;;;;5022035;28;20091;-80
2022/01/05 07:37:33;;;;;;;15.73;2.30;;;;;;;;;;5024118;28;20514;-81
2022/01/05 07:39:59;;;;;;;10.25;1.52;;;;;;;;;;5025425;28;20082;-80
2022/01/05 07:42:27;;;;;;;12.63;2.33;;;;;;;;;;5023109;28;20580;-80
2022/01/05 07:44:53;;;;;;;11.25;1.92;;;;;;;;;;5025887;28;20528;-81
2022/01/05 07:47:19;;;;;;;17.83;1.58;;;;;;;;;;5024611;28;20049;-80
2022/01/05 07:49:45;;;;;;;15.25;2.17;;;;;;;;;;5020146;28;20509;-80
2022/01/05 07:52:11;;;;;;;12.52;1.73;;;;;;;;;;5025940;28;20498;-80
2022/01/05 07:54:37;;;;;;;17.33;1.85;;;;;;;;;;5027450;28;20096;-80
2022/01/05 07:57:04;;;;;;;15.60;2.50;;;;;;;;;;5026136;28;20431;-80
2022/01/05 07:59:30;;;;;;;21.65;2.03;;;;;;;;;;5025142;28;20037;-80
2022/01/05 08:01:56;;;;;;;12.00;1.85;;;;;;;;;;5025976;28;20046;-82
2022/01/05 08:04:22;;;;;;;13.30;1.60;;;;;;;;;;5026128;28;20133;-81
2022/01/05 08:06:48;;;;;;;15.65;1.58;;;;;;;;;;5026547;28;20029;-79
2022/01/05 08:09:14;;;;;;;11.73;2.03;;;;;;;;;;5026077;28;20482;-81
2022/01/05 08:11:40;;;;;;;18.55;2.53;;;;;;;;;;5008274;28;20463;-81
2022/01/05 08:14:06;;;;;;;16.00;2.00;;;;;;;;;;5025323;28;20088;-82
2022/01/05 08:16:32;;;;;;;16.67;1.80;;;;;;;;;;5026201;28;20042;-79
2022/01/05 08:18:58;;;;;;;9.82;1.45;;;;;;;;;;5007460;28;20033;-80
2022/01/05 08:21:24;;;;;;;20.42;2.17;;;;;;;;;;5024778;28;20085;-82
2022/01/05 08:23:50;;;;;;;25.77;2.70;;;;;;;;;;5025667;28;20045;-81
2022/01/05 08:26:16;;;;;;;23.08;2.50;;;;;;;;;;5025718;28;20033;-80
2022/01/05 08:28:42;;;;;;;15.88;2.08;;;;;;;;;;5026116;28;20064;-81
2022/01/05 08:31:09;;;;;;;15.10;2.28;;;;;;;;;;5025033;28;20041;-81
2022/01/05 08:33:35;;;;;;;26.40;2.33;;;;;;;;;;5024208;28;20053;-81
2022/01/05 08:36:02;;;;;;;20.30;2.50;;;;;;;;;;5024707;28;20057;-81
2022/01/05 08:38:28;;;;;;;29.75;2.83;;;;;;;;;;5022594;28;20567;-81
2022/01/05 08:40:54;;;;;;;13.35;1.90;;;;;;;;;;5024077;28;20037;-81
2022/01/05 08:43:20;;;;;;;19.60;2.53;;;;;;;;;;5024911;28;20532;-82
2022/01/05 08:45:47;;;;;;;23.75;2.75;;;;;;;;;;5024557;28;20408;-81
2022/01/05 08:48:13;;;;;;;22.25;2.75;;;;;;;;;;5022171;28;20123;-81
2022/01/05 08:50:39;;;;;;;23.60;3.03;;;;;;;;;;5024929;28;20513;-81
2022/01/05 08:53:06;;;;;;;20.95;3.85;;;;;;;;;;5023614;28;20424;-81
2022/01/05 08:55:35;;;;;;;21.08;2.78;;;;;;;;;;5022155;28;20060;-81
2022/01/05 08:58:01;;;;;;;17.35;2.45;;;;;;;;;;5021036;28;20136;-81
2022/01/05 09:00:28;;;;;;;23.20;3.58;;;;;;;;;;5023803;28;20049;-81
2022/01/05 09:02:54;;;;;;;23.65;2.97;;;;;;;;;;5022524;28;20485;-81
2022/01/05 09:05:20;;;;;;;31.63;3.88;;;;;;;;;;5022179;28;20042;-81
2022/01/05 09:07:46;;;;;;;21.67;2.63;;;;;;;;;;5024139;28;20040;-82
2022/01/05 09:10:13;;;;;;;25.75;3.70;;;;;;;;;;5023952;28;20049;-81
2022/01/05 09:12:39;;;;;;;28.05;2.92;;;;;;;;;;5023788;28;20033;-81
2022/01/05 09:15:05;;;;;;;32.35;2.50;;;;;;;;;;5024353;28;20045;-80
2022/01/05 09:17:31;;;;;;;20.15;2.80;;;;;;;;;;5007652;28;20049;-81
2022/01/05 09:19:58;;;;;;;32.30;4.25;;;;;;;;;;5025521;28;20084;-81
2022/01/05 09:22:24;;;;;;;25.15;4.20;;;;;;;;;;5024665;28;20056;-81
2022/01/05 09:24:50;;;;;;;30.98;3.15;;;;;;;;;;5024339;28;20033;-82
2022/01/05 09:27:17;;;;;;;32.00;3.45;;;;;;;;;;5024379;28;20037;-80
2022/01/05 09:29:43;;;;;;;31.05;3.20;;;;;;;;;;5024641;28;20038;-81
2022/01/05 09:32:09;;;;;;;28.95;4.90;;;;;;;;;;5025222;28;20528;-81
2022/01/05 09:34:36;;;;;;;24.55;3.22;;;;;;;;;;5025632;28;20056;-80
2022/01/05 09:37:13;;;;;;;38.17;4.45;;;;;;;;;;5025327;28;20183;-81
2022/01/05 09:42:24;;;;;;;36.92;3.65;;;;;;;;;;5025538;28;20117;-80
2022/01/05 09:44:52;;;;;;;34.45;3.75;;;;;;;;;;5031360;28;20045;-81
2022/01/05 09:47:37;;;;;;;39.65;4.57;;;;;;;;;;5032941;28;20049;-81
2022/01/05 09:50:06;;;;;;;33.58;3.28;;;;;;;;;;5031124;28;20574;-80
2022/01/05 09:52:33;;;;;;;22.40;3.78;;;;;;;;;;5031762;28;20531;-81
2022/01/05 09:54:59;;;;;;;18.30;2.97;;;;;;;;;;5030273;28;20079;-81
2022/01/05 09:57:26;;;;;;;21.45;4.03;;;;;;;;;;5029153;28;20030;-81
2022/01/05 09:59:52;;;;;;;14.73;2.47;;;;;;;;;;5030132;28;20095;-81
2022/01/05 10:02:20;;;;;;;26.88;3.40;;;;;;;;;;5029695;28;20164;-81
2022/01/05 10:04:46;;;;;;;13.88;2.78;;;;;;;;;;5029605;28;20046;-81
2022/01/05 10:07:12;;;;;;;24.23;3.35;;;;;;;;;;5031252;28;20050;-80
2022/01/05 10:09:39;;;;;;;14.77;2.38;;;;;;;;;;5031993;28;20052;-80
2022/01/05 10:12:06;;;;;;;28.33;3.60;;;;;;;;;;5032518;28;20026;-81
2022/01/05 10:14:32;;;;;;;23.25;3.17;;;;;;;;;;5029052;28;20124;-80
2022/01/05 10:17:03;;;;;;;17.92;2.88;;;;;;;;;;5029591;28;20124;-81
2022/01/05 10:19:29;;;;;;;24.73;3.92;;;;;;;;;;5028013;28;20034;-81
2022/01/05 10:21:57;;;;;;;21.00;3.03;;;;;;;;;;5030181;28;20508;-81
2022/01/05 10:24:42;;;;;;;23.85;3.00;;;;;;;;;;5030308;28;20049;-81
2022/01/05 10:27:09;;;;;;;23.02;3.45;;;;;;;;;;5030173;28;20091;-81
2022/01/05 10:29:35;;;;;;;25.77;3.63;;;;;;;;;;5030084;28;20048;-81
2022/01/05 10:32:01;;;;;;;25.95;2.95;;;;;;;;;;5027457;28;20115;-81
2022/01/05 10:34:32;;;;;;;31.65;4.18;;;;;;;;;;5030113;28;20124;-81
2022/01/05 10:37:06;;;;;;;19.25;4.35;;;;;;;;;;5025466;28;20037;-82
2022/01/05 10:39:39;;;;;;;21.20;3.58;;;;;;;;;;5012085;28;20053;-82
2022/01/05 10:42:10;;;;;;;23.05;2.75;;;;;;;;;;5030127;28;20049;-81
2022/01/05 10:44:36;;;;;;;28.58;4.18;;;;;;;;;;5031287;28;20025;-82
2022/01/05 10:47:05;;;;;;;30.95;4.20;;;;;;;;;;5029991;28;20037;-82
2022/01/05 10:49:41;;;;;;;25.42;4.07;;;;;;;;;;5028495;28;20358;-81
2022/01/05 10:52:28;;;;;;;34.75;5.38;;;;;;;;;;5011541;28;20033;-80
2022/01/05 10:54:56;;;;;;;25.45;3.65;;;;;;;;;;5009994;28;20037;-82
2022/01/05 10:57:23;;;;;;;22.08;4.13;;;;;;;;;;4993233;28;20073;-81
2022/01/05 10:59:55;;;;;;;30.15;5.05;;;;;;;;;;5026528;28;20088;-81
2022/01/05 11:02:22;;;;;;;28.13;5.03;;;;;;;;;;5008219;28;20038;-81
2022/01/05 11:04:49;;;;;;;32.25;5.55;;;;;;;;;;5008060;28;20060;-81
2022/01/05 11:07:22;;;;;;;33.67;4.55;;;;;;;;;;5025554;28;20092;-81
2022/01/05 11:09:56;;;;;;;27.10;3.93;;;;;;;;;;5026698;28;20436;-80
2022/01/05 11:12:30;;;;;;;30.05;4.97;;;;;;;;;;5008300;28;20077;-81
2022/01/05 11:15:16;;;;;;;31.38;4.20;;;;;;;;;;5026643;28;20409;-81
2022/01/05 11:17:42;;;;;;;30.10;4.25;;;;;;;;;;5027051;28;20116;-81
2022/01/05 11:20:12;;;;;;;33.10;4.68;;;;;;;;;;5007089;28;20088;-82
2022/01/05 11:22:38;;;;;;;33.08;5.00;;;;;;;;;;5016186;28;20425;-81
2022/01/05 11:25:08;;;;;;;34.00;5.40;;;;;;;;;;5026938;28;20054;-81
2022/01/05 11:27:34;;;;;;;33.05;5.55;;;;;;;;;;5026965;28;20374;-82
2022/01/05 11:30:00;;;;;;;33.50;4.82;;;;;;;;;;5025678;28;20132;-82
2022/01/05 11:32:31;;;;;;;17.58;3.78;;;;;;;;;;5026855;28;20051;-81
2022/01/05 11:34:57;;;;;;;25.70;3.92;;;;;;;;;;5026763;28;20042;-81
2022/01/05 11:37:23;;;;;;;23.90;4.03;;;;;;;;;;4996798;28;20124;-81
2022/01/05 11:39:50;;;;;;;25.80;4.03;;;;;;;;;;5005830;28;20488;-81
2022/01/05 11:42:19;;;;;;;23.98;3.60;;;;;;;;;;5024378;28;20037;-81
2022/01/05 11:44:46;;;;;;;21.25;3.63;;;;;;;;;;5025340;28;20041;-85
2022/01/05 11:47:18;;;;;;;30.08;4.72;;;;;;;;;;5025889;28;20041;-84
2022/01/05 11:49:45;;;;;;;26.50;3.92;;;;;;;;;;4989100;28;20052;-84
2022/01/05 11:52:11;;;;;;;33.30;4.53;;;;;;;;;;5027801;28;20046;-84
2022/01/05 11:54:37;;;;;;;23.73;3.67;;;;;;;;;;5022545;28;20489;-84
2022/01/05 11:57:10;;;;;;;37.85;5.55;;;;;;;;;;5027081;28;20041;-85
2022/01/05 11:59:37;;;;;;;24.20;3.47;;;;;;;;;;5001718;28;20045;-86
2022/01/05 12:02:03;;;;;;;21.80;4.28;;;;;;;;;;5023423;28;20513;-84
2022/01/05 12:04:30;;;;;;;29.08;4.50;;;;;;;;;;5025897;28;20048;-83
2022/01/05 12:07:00;;;;;;;27.10;4.00;;;;;;;;;;5003266;28;20750;-86
2022/01/05 12:09:28;;;;;;;23.20;4.25;;;;;;;;;;5024305;28;20076;-85
2022/01/05 12:11:54;;;;;;;20.25;3.15;;;;;;;;;;5025454;28;20041;-84
2022/01/05 12:14:20;;;;;;;26.52;3.88;;;;;;;;;;5026222;28;20041;-83
2022/01/05 12:17:02;;;;;;;26.92;4.75;;;;;;;;;;5025446;28;20080;-84
2022/01/05 12:19:32;;;;;;;23.88;3.38;;;;;;;;;;5021378;28;20069;-84
2022/01/05 12:21:59;;;;;;;20.85;4.18;;;;;;;;;;5007368;28;20065;-84
2022/01/05 12:24:45;;;;;;;30.20;3.75;;;;;;;;;;5008533;28;20132;-82
2022/01/05 12:27:17;;;;;;;17.45;3.47;;;;;;;;;;5017491;28;20446;-84
2022/01/05 12:29:44;;;;;;;16.48;2.45;;;;;;;;;;5006311;28;20037;-84
2022/01/05 12:32:10;;;;;;;27.77;3.60;;;;;;;;;;5009692;28;20054;-83
2022/01/05 12:34:55;;;;;;;20.98;3.17;;;;;;;;;;5010377;28;20128;-84
2022/01/05 12:37:41;;;;;;;19.25;3.33;;;;;;;;;;5010526;28;20042;-83
2022/01/05 12:40:22;;;;;;;25.55;3.88;;;;;;;;;;5012172;28;20045;-84
2022/01/05 12:42:48;;;;;;;34.05;3.72;;;;;;;;;;5007037;28;20187;-83
2022/01/05 12:46:03;;;;;;;19.75;4.05;;;8.70;99.90;;;;;;5025700;28;20034;-83
2022/01/05 12:48:33;;;;;;;30.33;4.80;;;;;;;;;;4990655;28;20164;-83
2022/01/05 12:51:17;;;;;;;28.88;4.00;;;;;;;;;;5008381;28;20060;-82
2022/01/05 12:53:52;;;;;;;24.65;3.80;;;;;;;;;;5026891;28;20038;-83
2022/01/05 12:56:19;;;;;;;25.65;3.33;;;;;;;;;;5024691;28;20053;-81
2022/01/05 12:58:47;;;;;;;22.90;3.72;;;;;;;;;;5026414;28;20037;-83
2022/01/05 13:01:14;;;;;;;17.90;3.10;;;;;;;;;;5022919;28;20615;-83
2022/01/05 13:03:40;;;;;;;11.27;1.90;;;;;;;;;;5025524;28;20402;-83
2022/01/05 13:06:20;;;;;;;15.90;2.80;;;;;;;;;;5026246;28;20040;-82
2022/01/05 13:08:47;;;;;;;26.15;3.08;;;;;;;;;;5023415;28;20130;-84
2022/01/05 13:11:14;;;;;;;21.60;2.75;;;;;;;;;;5028387;28;20033;-84
2022/01/05 13:13:42;;;;;;;20.52;3.33;;;;;;;;;;5027103;28;20056;-83
2022/01/05 13:16:08;;;;;;;18.63;3.72;;;;;;;;;;5008948;28;20052;-82
2022/01/05 13:18:34;;;;;;;25.80;4.35;;;;;;;;;;5022941;28;20041;-83
2022/01/05 13:21:00;;;;;;;25.10;4.20;;;;;;;;;;5026642;28;20493;-82
2022/01/05 13:23:27;;;;;;;23.50;4.20;;;;;;;;;;5024256;28;20084;-83
2022/01/05 13:25:53;;;;;;;23.83;3.90;;;;;;;;;;5017108;28;20060;-83
2022/01/05 13:28:20;;;;;;;28.45;4.60;;;;;;;;;;5026758;28;20501;-83
2022/01/05 13:30:46;;;;;;;29.65;4.90;;;;;;;;;;5025180;28;20033;-85
2022/01/05 13:33:15;;;;;;;29.10;4.50;;;;;;;;;;5028527;28;20462;-84
2022/01/05 13:35:41;;;;;;;33.90;4.07;;;;;;;;;;5028022;28;20045;-84
2022/01/05 13:38:07;;;;;;;26.92;3.75;;;;;;;;;;5010742;28;20108;-84
2022/01/05 13:40:35;;;;;;;19.10;3.00;;;;;;;;;;5008346;28;20497;-84
2022/01/05 13:43:03;;;;;;;19.17;3.88;;;;;;;;;;5008668;28;20060;-83
2022/01/05 13:45:34;;;;;;;14.55;2.90;;;;;;;;;;5025103;28;20084;-83
2022/01/05 13:48:00;;;;;;;33.45;4.03;;;;;;;;;;5009213;28;20075;-84
2022/01/05 13:50:28;;;;;;;25.30;4.07;;;;;;;;;;5011353;28;20049;-83
2022/01/05 13:52:58;;;;;;;29.17;4.05;;;;;;;;;;5008680;28;20052;-84
2022/01/05 13:55:29;;;;;;;27.35;3.58;;;;;;;;;;5025589;28;20662;-84
2022/01/05 13:58:03;;;;;;;22.98;4.60;;;;;;;;;;5006512;28;20042;-83
2022/01/05 14:00:29;;;;;;;34.10;5.13;;;;;;;;;;5025580;28;20640;-84
2022/01/05 14:03:23;;;;;;;18.67;2.90;;;;;;;;;;5007849;28;20174;-84
2022/01/05 14:05:49;;;;;;;19.42;2.83;;;;;;;;;;5004436;28;20382;-83
2022/01/05 14:08:15;;;;;;;28.73;4.15;;;;;;;;;;5026321;28;20040;-86
2022/01/05 14:10:41;;;;;;;27.63;4.20;;;;;;;;;;5025816;28;20132;-83
2022/01/05 14:13:08;;;;;;;37.55;4.05;;;;;;;;;;4991441;28;20081;-83
2022/01/05 14:15:34;;;;;;;26.55;3.38;;;;;;;;;;5007604;28;20093;-84
2022/01/05 14:18:09;;;;;;;33.03;4.43;;;;;;;;;;5022876;28;20089;-84
2022/01/05 14:20:43;;;;;;;22.67;3.33;;;;;;;;;;5025705;28;20057;-83
2022/01/05 14:23:11;;;;;;;26.43;4.10;;;;;;;;;;5021048;28;20528;-83
2022/01/05 14:25:51;;;;;;;26.75;5.10;;;;;;;;;;5027136;28;20393;-84
2022/01/05 14:28:23;;;;;;;31.52;4.38;;;;;;;;;;5009704;28;20045;-83
2022/01/05 14:30:53;;;;;;;30.85;4.93;;;;;;;;;;5026672;28;20511;-84
2022/01/05 14:33:42;;;;;;;42.47;5.80;;;;;;;;;;5029268;28;20526;-83
2022/01/05 14:36:39;;;;;;;35.78;5.50;;;;;;;;;;5005193;28;20064;-84
2022/01/05 14:39:19;;;;;;;39.55;5.22;;;;;;;;;;5006411;28;20434;-86